createdAt,value
2023-04-17T00:01:07.953Z,30.17
2023-04-17T00:03:36.308Z,32.63
2023-04-17T00:06:04.671Z,27.87
2023-04-17T00:08:34.863Z,30.80
2023-04-17T00:11:07.998Z,29.40
2023-04-17T00:13:37.253Z,33.83
2023-04-17T00:16:05.618Z,31.77
2023-04-17T00:18:33.845Z,32.57
2023-04-17T00:21:02.063Z,32.90
2023-04-17T00:23:30.365Z,40.07
2023-04-17T00:25:59.980Z,35.33
2023-04-17T00:28:28.264Z,36.30
2023-04-17T00:30:58.282Z,31.73
2023-04-17T00:33:26.619Z,33.30
2023-04-17T00:35:54.886Z,35.60
2023-04-17T00:38:23.173Z,31.87
2023-04-17T00:40:51.794Z,32.43
2023-04-17T00:43:21.339Z,36.47
2023-04-17T00:45:49.987Z,38.73
2023-04-17T00:48:18.797Z,30.47
2023-04-17T00:50:47.504Z,32.70
2023-04-17T00:53:16.216Z,32.80
2023-04-17T00:55:45.420Z,21.27
2023-04-17T00:58:13.703Z,33.50
2023-04-17T01:00:43.375Z,33.70
2023-04-17T01:03:12.494Z,29.53
2023-04-17T01:05:41.245Z,31.93
2023-04-17T01:08:09.457Z,32.80
2023-04-17T01:10:37.726Z,43.00
2023-04-17T01:13:06.499Z,35.80
2023-04-17T01:15:36.940Z,45.33
2023-04-17T01:18:07.101Z,39.73
2023-04-17T01:20:35.760Z,39.07
2023-04-17T01:23:04.094Z,43.53
2023-04-17T01:25:33.678Z,39.77
2023-04-17T01:28:01.854Z,41.93
2023-04-17T01:30:30.057Z,30.03
2023-04-17T01:32:58.375Z,37.13
2023-04-17T01:35:26.637Z,33.17
2023-04-17T01:37:54.823Z,35.10
2023-04-17T01:40:23.344Z,34.03
2023-04-17T01:42:52.922Z,38.83
2023-04-17T01:45:21.407Z,40.53
2023-04-17T01:47:49.646Z,45.07
2023-04-17T01:50:18.018Z,42.53
2023-04-17T01:52:46.307Z,38.63
2023-04-17T01:55:14.553Z,42.80
2023-04-17T01:57:42.850Z,34.97
2023-04-17T02:00:12.991Z,36.10
2023-04-17T02:02:41.552Z,40.13
2023-04-17T02:05:09.993Z,38.30
2023-04-17T02:07:38.232Z,44.30
2023-04-17T02:10:06.721Z,35.97
2023-04-17T02:12:36.044Z,37.20
2023-04-17T02:15:04.377Z,43.90
2023-04-17T02:17:33.986Z,47.07
2023-04-17T02:20:02.157Z,36.33
2023-04-17T02:22:30.411Z,40.67
2023-04-17T02:24:58.600Z,36.40
2023-04-17T02:27:27.101Z,36.90
2023-04-17T02:29:55.451Z,36.13
2023-04-17T02:32:23.694Z,33.73
2023-04-17T02:34:54.334Z,42.37
2023-04-17T02:37:22.574Z,41.07
2023-04-17T02:39:50.909Z,44.33
2023-04-17T02:42:19.165Z,32.83
2023-04-17T02:44:47.473Z,43.03
2023-04-17T02:47:15.920Z,49.83
2023-04-17T02:49:44.173Z,46.70
2023-04-17T02:52:13.721Z,48.50
2023-04-17T02:54:41.951Z,42.57
2023-04-17T02:57:10.163Z,56.70
2023-04-17T02:59:38.387Z,41.73
2023-04-17T03:02:07.079Z,48.10
2023-04-17T03:04:35.666Z,47.70
2023-04-17T03:07:04.069Z,34.20
2023-04-17T03:09:35.033Z,47.27
2023-04-17T03:12:03.247Z,44.87
2023-04-17T03:14:31.455Z,43.27
2023-04-17T03:16:59.816Z,51.40
2023-04-17T03:19:28.067Z,51.33
2023-04-17T03:21:56.273Z,50.47
2023-04-17T03:24:24.532Z,31.37
2023-04-17T03:26:54.111Z,39.33
2023-04-17T03:29:22.344Z,48.37
2023-04-17T03:31:50.709Z,45.93
2023-04-17T03:34:19.191Z,42.23
2023-04-17T03:36:47.429Z,44.23
2023-04-17T03:39:15.788Z,47.90
2023-04-17T03:41:44.007Z,39.27
2023-04-17T03:44:13.625Z,18.30
2023-04-17T03:46:41.886Z,48.70
2023-04-17T03:49:10.470Z,41.10
2023-04-17T03:51:38.877Z,43.23
2023-04-17T03:54:07.200Z,50.63
2023-04-17T03:56:35.488Z,49.03
2023-04-17T03:59:04.677Z,45.13
2023-04-17T04:01:34.421Z,46.50
2023-04-17T04:04:02.873Z,40.73
2023-04-17T04:06:31.167Z,37.10
2023-04-17T04:08:59.329Z,43.80
2023-04-17T04:11:27.547Z,40.40
2023-04-17T04:13:55.776Z,47.13
2023-04-17T04:16:24.065Z,51.87
2023-04-17T04:18:53.700Z,48.03
2023-04-17T04:21:21.963Z,44.70
2023-04-17T04:23:51.057Z,49.17
2023-04-17T04:26:21.699Z,41.50
2023-04-17T04:28:49.953Z,51.00
2023-04-17T04:31:19.170Z,46.10
2023-04-17T04:33:47.464Z,45.07
2023-04-17T04:36:21.047Z,55.03
2023-04-17T04:38:50.432Z,45.07
2023-04-17T04:41:19.908Z,43.97
2023-04-17T04:43:48.247Z,34.20
2023-04-17T04:46:16.572Z,40.90
2023-04-17T04:48:44.856Z,43.47
2023-04-17T04:51:13.319Z,52.27
2023-04-17T04:53:44.681Z,44.00
2023-04-17T04:56:12.992Z,42.93
2023-04-17T04:58:41.255Z,46.07
2023-04-17T05:01:09.597Z,46.47
2023-04-17T05:03:38.425Z,48.00
2023-04-17T05:06:06.933Z,43.20
2023-04-17T05:08:35.158Z,47.50
2023-04-17T05:11:04.922Z,46.10
2023-04-17T05:13:33.162Z,42.20
2023-04-17T05:16:01.976Z,29.07
2023-04-17T05:18:30.394Z,43.70
2023-04-17T05:20:58.633Z,31.73
2023-04-17T05:23:28.276Z,40.27
2023-04-17T05:25:56.537Z,29.40
2023-04-17T05:28:27.315Z,46.97
2023-04-17T05:30:55.897Z,41.33
2023-04-17T05:33:24.358Z,35.77
2023-04-17T05:35:55.394Z,33.87
2023-04-17T05:38:24.394Z,33.03
2023-04-17T05:40:54.237Z,41.20
2023-04-17T05:43:22.506Z,53.20
2023-04-17T05:45:52.157Z,28.30
2023-04-17T05:48:20.424Z,47.00
2023-04-17T05:50:48.652Z,38.83
2023-04-17T05:53:16.910Z,45.67
2023-04-17T05:55:45.158Z,42.70
2023-04-17T06:00:44.609Z,43.10
2023-04-17T06:03:18.050Z,45.13
2023-04-17T06:05:48.250Z,41.57
2023-04-17T06:08:17.322Z,45.83
2023-04-17T06:10:46.559Z,42.10
2023-04-17T06:13:14.817Z,40.07
2023-04-17T06:15:43.045Z,35.50
2023-04-17T06:18:11.263Z,40.13
2023-04-17T06:20:40.914Z,40.23
2023-04-17T06:23:09.138Z,44.33
2023-04-17T06:25:37.413Z,15.23
2023-04-17T06:28:05.936Z,42.50
2023-04-17T06:30:34.235Z,31.00
2023-04-17T06:33:02.703Z,43.13
2023-04-17T06:35:30.999Z,43.97
2023-04-17T06:38:00.693Z,36.10
2023-04-17T06:40:28.982Z,33.23
2023-04-17T06:42:57.182Z,41.20
2023-04-17T06:45:25.374Z,50.87
2023-04-17T06:47:53.638Z,42.73
2023-04-17T06:50:22.372Z,45.97
2023-04-17T06:52:50.594Z,45.70
2023-04-17T06:55:20.343Z,50.07
2023-04-17T06:57:48.571Z,40.17
2023-04-17T07:00:17.300Z,48.13
2023-04-17T07:02:45.659Z,58.33
2023-04-17T07:05:14.328Z,52.70
2023-04-17T07:07:42.589Z,58.80
2023-04-17T07:10:10.970Z,51.33
2023-04-17T07:12:40.753Z,54.27
2023-04-17T07:15:09.768Z,53.10
2023-04-17T07:17:38.112Z,64.33
2023-04-17T07:20:07.138Z,55.10
2023-04-17T07:22:35.515Z,30.83
2023-04-17T07:25:03.853Z,61.47
2023-04-17T07:27:32.121Z,59.80
2023-04-17T07:30:01.759Z,65.40
2023-04-17T07:32:30.100Z,58.80
2023-04-17T07:34:58.341Z,41.17
2023-04-17T07:37:26.738Z,41.30
2023-04-17T07:39:55.016Z,66.83
2023-04-17T07:42:23.277Z,59.60
2023-04-17T07:44:51.490Z,47.07
2023-04-17T07:47:21.147Z,65.30
2023-04-17T07:49:50.242Z,63.07
2023-04-17T07:52:18.616Z,56.77
2023-04-17T07:54:46.870Z,66.30
2023-04-17T07:57:15.502Z,66.57
2023-04-17T07:59:43.710Z,63.07
2023-04-17T08:02:12.046Z,43.17
2023-04-17T08:04:41.758Z,54.33
2023-04-17T08:07:11.246Z,56.50
2023-04-17T08:09:40.624Z,55.10
2023-04-17T08:12:10.260Z,70.33
2023-04-17T08:14:38.804Z,73.30
2023-04-17T08:17:07.686Z,71.43
2023-04-17T08:19:36.099Z,58.83
2023-04-17T08:22:07.231Z,71.87
2023-04-17T08:24:35.510Z,60.17
2023-04-17T08:27:05.168Z,59.87
2023-04-17T08:29:33.465Z,66.83
2023-04-17T08:32:14.062Z,50.43
2023-04-17T08:34:43.341Z,46.93
2023-04-17T08:37:13.218Z,86.60
2023-04-17T08:39:41.505Z,67.77
2023-04-17T08:42:15.288Z,60.33
2023-04-17T08:44:44.937Z,75.83
2023-04-17T08:47:13.957Z,45.37
2023-04-17T08:49:44.182Z,59.93
2023-04-17T08:52:14.406Z,76.77
2023-04-17T08:54:42.602Z,57.33
2023-04-17T08:57:10.894Z,82.00
2023-04-17T08:59:39.314Z,88.00
2023-04-17T09:02:08.481Z,78.27
2023-04-17T09:04:38.255Z,74.33
2023-04-17T09:07:06.929Z,81.97
2023-04-17T09:09:52.914Z,56.07
2023-04-17T09:12:23.044Z,82.00
2023-04-17T09:14:51.537Z,72.97
2023-04-17T09:17:20.293Z,72.13
2023-04-17T09:20:07.443Z,80.90
2023-04-17T09:22:36.257Z,79.73
2023-04-17T09:25:05.226Z,78.10
2023-04-17T09:27:34.831Z,68.30
2023-04-17T09:30:04.453Z,101.67
2023-04-17T09:32:33.328Z,68.03
2023-04-17T09:35:02.552Z,89.17
2023-04-17T09:37:45.708Z,69.70
2023-04-17T09:40:14.066Z,49.20
2023-04-17T09:42:55.185Z,78.10
2023-04-17T09:45:24.395Z,79.27
2023-04-17T09:47:55.779Z,56.17
2023-04-17T09:50:25.479Z,65.13
2023-04-17T09:52:54.655Z,90.13
2023-04-17T09:55:23.776Z,68.93
2023-04-17T09:57:55.584Z,81.13
2023-04-17T10:00:26.857Z,80.90
2023-04-17T10:02:56.068Z,80.67
2023-04-17T10:05:25.835Z,56.60
2023-04-17T10:07:54.127Z,48.50
2023-04-17T10:10:26.369Z,63.50
2023-04-17T10:12:58.355Z,90.37
2023-04-17T10:15:27.544Z,67.07
2023-04-17T10:17:57.710Z,62.37
2023-04-17T10:20:44.735Z,81.17
2023-04-17T10:23:29.616Z,65.63
2023-04-17T10:26:16.343Z,86.03
2023-04-17T10:28:53.112Z,82.27
2023-04-17T10:31:23.094Z,77.50
2023-04-17T10:33:51.566Z,90.53
2023-04-17T10:36:34.722Z,55.43
2023-04-17T10:39:14.346Z,61.40
2023-04-17T10:41:57.647Z,75.90
2023-04-17T10:44:27.728Z,81.43
2023-04-17T10:46:56.017Z,77.57
2023-04-17T10:49:24.194Z,76.57
2023-04-17T10:51:52.606Z,78.73
2023-04-17T10:54:20.886Z,81.10
2023-04-17T10:56:49.332Z,78.10
2023-04-17T10:59:18.164Z,79.83
2023-04-17T11:02:00.957Z,55.57
2023-04-17T11:04:30.400Z,78.23
2023-04-17T11:06:58.750Z,45.57
2023-04-17T11:09:28.074Z,32.83
2023-04-17T11:11:56.930Z,76.17
2023-04-17T11:14:26.457Z,71.97
2023-04-17T11:16:54.817Z,46.33
2023-04-17T11:19:26.250Z,71.67
2023-04-17T11:21:55.127Z,69.77
2023-04-17T11:24:26.615Z,57.30
2023-04-17T11:26:55.240Z,62.80
2023-04-17T11:29:24.277Z,60.63
2023-04-17T11:31:53.474Z,36.67
2023-04-17T11:34:22.404Z,24.47
2023-04-17T11:36:52.294Z,58.40
2023-04-17T11:39:20.617Z,62.80
2023-04-17T11:41:49.567Z,53.07
2023-04-17T11:44:20.142Z,63.07
2023-04-17T11:46:50.702Z,55.47
2023-04-17T11:49:25.211Z,57.13
2023-04-17T11:51:54.880Z,57.20
2023-04-17T11:54:27.031Z,57.40
2023-04-17T11:57:02.250Z,48.63
2023-04-17T11:59:33.948Z,49.93
2023-04-17T12:02:03.340Z,44.67
2023-04-17T12:04:34.922Z,60.43
2023-04-17T12:07:05.587Z,46.47
2023-04-17T12:09:34.455Z,58.40
2023-04-17T12:12:03.724Z,46.43
2023-04-17T12:14:32.191Z,38.70
2023-04-17T12:17:01.104Z,34.57
2023-04-17T12:19:31.714Z,38.33
2023-04-17T12:22:00.173Z,37.53
2023-04-17T12:24:32.596Z,34.53
2023-04-17T12:27:02.014Z,33.30
2023-04-17T12:29:42.944Z,35.83
2023-04-17T12:32:12.174Z,32.13
2023-04-17T12:34:40.611Z,40.20
2023-04-17T12:37:09.007Z,38.13
2023-04-17T12:39:38.735Z,35.03
2023-04-17T12:42:07.152Z,39.60
2023-04-17T12:44:35.539Z,22.90
2023-04-17T12:47:03.900Z,19.27
2023-04-17T12:49:32.143Z,32.90
2023-04-17T12:52:02.995Z,32.73
2023-04-17T12:54:33.700Z,37.27
2023-04-17T12:57:03.356Z,22.47
2023-04-17T12:59:31.599Z,36.33
2023-04-17T13:01:59.912Z,41.87
2023-04-17T13:04:28.461Z,39.77
2023-04-17T13:06:56.794Z,22.40
2023-04-17T13:09:25.073Z,24.43
2023-04-17T13:11:53.357Z,27.77
2023-04-17T13:14:22.904Z,21.00
2023-04-17T13:16:51.533Z,31.87
2023-04-17T13:19:19.880Z,28.90
2023-04-17T13:21:48.142Z,36.73
2023-04-17T13:24:16.798Z,28.80
2023-04-17T13:26:45.255Z,39.93
2023-04-17T13:29:13.914Z,27.67
2023-04-17T13:31:44.433Z,30.37
2023-04-17T13:34:12.998Z,27.47
2023-04-17T13:36:42.345Z,31.77
2023-04-17T13:39:10.774Z,29.17
2023-04-17T13:41:39.214Z,28.27
2023-04-17T13:44:07.448Z,27.70
2023-04-17T13:46:36.477Z,27.17
2023-04-17T13:49:06.074Z,27.53
2023-04-17T13:51:34.300Z,29.73
2023-04-17T13:54:02.501Z,27.70
2023-04-17T13:56:30.981Z,22.23
2023-04-17T13:58:59.883Z,25.37
2023-04-17T14:01:28.252Z,32.80
2023-04-17T14:03:56.711Z,26.97
2023-04-17T14:06:28.105Z,20.87
2023-04-17T14:08:56.617Z,14.47
2023-04-17T14:11:25.180Z,20.47
2023-04-17T14:13:53.369Z,18.63
2023-04-17T14:16:21.724Z,27.77
2023-04-17T14:18:50.290Z,22.17
2023-04-17T14:21:19.178Z,21.50
2023-04-17T14:23:48.776Z,23.83
2023-04-17T14:26:16.949Z,24.97
2023-04-17T14:28:45.271Z,16.73
2023-04-17T14:31:13.527Z,19.63
2023-04-17T14:33:41.867Z,14.30
2023-04-17T14:36:10.486Z,25.93
2023-04-17T14:38:38.704Z,11.33
2023-04-17T14:41:08.540Z,16.57
2023-04-17T14:43:36.820Z,14.87
2023-04-17T14:46:05.099Z,16.00
2023-04-17T14:48:41.186Z,13.17
2023-04-17T14:51:20.427Z,20.30
2023-04-17T14:53:48.726Z,14.40
2023-04-17T14:56:18.410Z,18.07
2023-04-17T14:58:46.661Z,13.53
2023-04-17T15:01:14.898Z,18.90
2023-04-17T15:03:46.668Z,18.23
2023-04-17T15:06:16.548Z,16.40
2023-04-17T15:08:46.054Z,20.03
2023-04-17T15:11:14.308Z,18.17
2023-04-17T15:13:44.181Z,16.17
2023-04-17T15:16:12.551Z,18.50
2023-04-17T15:18:40.781Z,15.03
2023-04-17T15:21:09.324Z,20.70
2023-04-17T15:23:37.665Z,10.37
2023-04-17T15:26:06.008Z,20.70
2023-04-17T15:28:35.092Z,14.63
2023-04-17T15:31:04.920Z,16.60
2023-04-17T15:33:33.189Z,16.30
2023-04-17T15:36:01.893Z,14.37
2023-04-17T15:38:30.175Z,12.10
2023-04-17T15:40:58.884Z,15.37
2023-04-17T15:43:27.193Z,18.07
2023-04-17T15:45:56.352Z,16.33
2023-04-17T15:48:26.045Z,16.93
2023-04-17T15:50:54.314Z,14.50
2023-04-17T15:53:22.634Z,9.30
2023-04-17T15:55:51.016Z,9.00
2023-04-17T15:58:19.728Z,17.20
2023-04-17T16:00:47.939Z,13.10
2023-04-17T16:03:16.403Z,14.50
2023-04-17T16:05:46.202Z,18.17
2023-04-17T16:08:14.630Z,12.13
2023-04-17T16:10:43.334Z,10.00
2023-04-17T16:13:11.626Z,14.70
2023-04-17T16:15:39.848Z,5.53
2023-04-17T16:18:08.248Z,13.57
2023-04-17T16:20:36.556Z,14.97
2023-04-17T16:23:06.270Z,8.90
2023-04-17T16:25:37.197Z,13.50
2023-04-17T16:28:05.436Z,17.30
2023-04-17T16:30:33.833Z,18.13
2023-04-17T16:33:02.712Z,12.57
2023-04-17T16:35:31.109Z,18.43
2023-04-17T16:38:01.199Z,14.93
2023-04-17T16:40:31.407Z,10.57
2023-04-17T16:42:59.835Z,19.10
2023-04-17T16:45:28.135Z,14.23
2023-04-17T16:47:57.095Z,16.63
2023-04-17T16:50:25.755Z,16.13
2023-04-17T16:52:54.097Z,15.30
2023-04-17T16:55:22.323Z,14.10
2023-04-17T16:57:51.976Z,15.80
2023-04-17T17:00:20.388Z,16.03
2023-04-17T17:02:48.756Z,15.37
2023-04-17T17:05:17.039Z,13.50
2023-04-17T17:07:45.293Z,13.10
2023-04-17T17:10:13.485Z,13.33
2023-04-17T17:12:41.680Z,17.53
2023-04-17T17:15:11.822Z,16.10
2023-04-17T17:17:40.237Z,14.80
2023-04-17T17:20:09.876Z,16.03
2023-04-17T17:22:38.078Z,12.67
2023-04-17T17:25:07.309Z,13.50
2023-04-17T17:27:35.658Z,15.10
2023-04-17T17:30:04.262Z,12.90
2023-04-17T17:32:33.859Z,15.27
2023-04-17T17:35:02.141Z,18.30
2023-04-17T17:37:30.521Z,14.83
2023-04-17T17:39:58.770Z,16.43
2023-04-17T17:42:27.061Z,10.83
2023-04-17T17:44:55.386Z,16.33
2023-04-17T17:47:23.860Z,20.27
2023-04-17T17:49:53.553Z,16.07
2023-04-17T17:52:21.741Z,14.37
2023-04-17T17:54:49.944Z,14.50
2023-04-17T17:57:18.147Z,14.10
2023-04-17T17:59:46.356Z,19.70
2023-04-17T18:02:14.883Z,16.70
2023-04-17T18:04:43.311Z,20.93
2023-04-17T18:07:13.009Z,13.80
2023-04-17T18:09:41.290Z,13.17
2023-04-17T18:12:09.557Z,14.13
2023-04-17T18:14:37.866Z,16.60
2023-04-17T18:17:06.193Z,6.27
2023-04-17T18:19:40.610Z,16.93
2023-04-17T18:22:09.038Z,22.83
2023-04-17T18:24:38.691Z,16.37
2023-04-17T18:27:06.940Z,14.07
2023-04-17T18:29:35.104Z,13.60
2023-04-17T18:32:03.766Z,14.00
2023-04-17T18:34:32.126Z,13.80
2023-04-17T18:37:00.500Z,15.03
2023-04-17T18:39:28.688Z,15.10
2023-04-17T18:41:58.524Z,19.43
2023-04-17T18:44:26.785Z,17.07
2023-04-17T18:46:55.071Z,14.83
2023-04-17T18:49:23.370Z,17.03
2023-04-17T18:51:51.653Z,21.27
2023-04-17T18:54:19.892Z,16.40
2023-04-17T18:56:48.261Z,16.47
2023-04-17T18:59:19.809Z,22.23
2023-04-17T19:01:48.147Z,14.93
2023-04-17T19:04:16.422Z,17.53
2023-04-17T19:06:44.583Z,18.30
2023-04-17T19:09:13.321Z,16.20
2023-04-17T19:11:41.578Z,13.47
2023-04-17T19:14:09.795Z,16.50
2023-04-17T19:16:39.414Z,17.17
2023-04-17T19:19:13.653Z,14.97
2023-04-17T19:21:42.293Z,19.83
2023-04-17T19:24:10.762Z,15.60
2023-04-17T19:26:39.575Z,17.23
2023-04-17T19:29:07.884Z,14.90
2023-04-17T19:31:37.500Z,14.93
2023-04-17T19:34:08.442Z,17.10
2023-04-17T19:36:36.696Z,16.97
2023-04-17T19:39:05.135Z,11.57
2023-04-17T19:41:33.366Z,15.83
2023-04-17T19:44:01.654Z,14.93
2023-04-17T19:46:29.930Z,13.50
2023-04-17T19:48:58.183Z,17.50
2023-04-17T19:51:27.946Z,14.80
2023-04-17T19:53:57.228Z,14.20
2023-04-17T19:56:25.675Z,13.53
2023-04-17T19:58:53.906Z,14.53
2023-04-17T20:01:22.265Z,15.13
2023-04-17T20:03:51.360Z,15.87
2023-04-17T20:06:20.547Z,13.77
2023-04-17T20:08:50.308Z,12.80
2023-04-17T20:11:18.570Z,13.70
2023-04-17T20:13:48.294Z,16.07
2023-04-17T20:16:16.670Z,14.83
2023-04-17T20:18:45.717Z,13.10
2023-04-17T20:21:14.080Z,14.77
2023-04-17T20:23:42.398Z,14.93
2023-04-17T20:26:12.564Z,15.07
2023-04-17T20:28:40.856Z,16.93
2023-04-17T20:31:09.269Z,16.07
2023-04-17T20:33:37.555Z,17.10
2023-04-17T20:36:06.953Z,15.13
2023-04-17T20:38:35.223Z,13.97
2023-04-17T20:41:03.473Z,19.77
2023-04-17T20:43:34.612Z,19.93
2023-04-17T20:46:02.876Z,12.83
2023-04-17T20:48:31.185Z,15.63
2023-04-17T20:50:59.423Z,14.50
2023-04-17T20:53:27.665Z,13.70
2023-04-17T20:55:57.795Z,13.80
2023-04-17T20:58:26.288Z,14.27
2023-04-17T21:01:01.331Z,15.70
2023-04-17T21:03:31.800Z,16.03
2023-04-17T21:06:00.264Z,11.90
2023-04-17T21:08:28.666Z,14.30
2023-04-17T21:10:56.993Z,14.50
2023-04-17T21:13:25.254Z,14.33
2023-04-17T21:15:53.488Z,15.97
2023-04-17T21:18:23.157Z,14.33
2023-04-17T21:20:51.548Z,16.37
2023-04-17T21:23:20.055Z,19.20
2023-04-17T21:25:50.409Z,21.63
2023-04-17T21:28:18.709Z,18.47
2023-04-17T21:30:47.134Z,19.33
2023-04-17T21:33:17.894Z,19.10
2023-04-17T21:35:47.551Z,20.00
2023-04-17T21:38:15.787Z,13.53
2023-04-17T21:40:51.015Z,18.27
2023-04-17T21:43:19.898Z,13.30
2023-04-17T21:45:49.964Z,13.53
2023-04-17T21:48:18.680Z,12.63
2023-04-17T21:50:48.530Z,15.73
2023-04-17T21:53:16.755Z,13.50
2023-04-17T21:55:45.023Z,15.00
2023-04-17T21:58:13.205Z,18.40
2023-04-17T22:00:41.417Z,19.37
2023-04-17T22:03:09.815Z,17.70
2023-04-17T22:05:38.158Z,22.23
2023-04-17T22:08:10.803Z,15.97
2023-04-17T22:10:39.057Z,15.87
2023-04-17T22:13:07.272Z,17.97
2023-04-17T22:15:35.510Z,18.87
2023-04-17T22:18:04.132Z,16.43
2023-04-17T22:20:32.419Z,14.30
2023-04-17T22:23:00.605Z,17.10
2023-04-17T22:25:30.184Z,20.50
2023-04-17T22:27:58.419Z,11.97
2023-04-17T22:30:26.745Z,19.53
2023-04-17T22:32:56.453Z,17.77
2023-04-17T22:35:24.864Z,21.57
2023-04-17T22:37:53.102Z,20.63
2023-04-17T22:40:21.489Z,18.13
2023-04-17T22:42:51.133Z,15.53
2023-04-17T22:45:19.490Z,18.30
2023-04-17T22:47:47.818Z,20.33
2023-04-17T22:50:17.690Z,19.17
2023-04-17T22:52:46.074Z,21.63
2023-04-17T22:55:14.442Z,19.57
2023-04-17T22:57:42.769Z,23.30
2023-04-17T23:00:13.041Z,18.53
2023-04-17T23:02:41.692Z,20.40
2023-04-17T23:05:10.709Z,17.33
2023-04-17T23:07:39.982Z,15.77
2023-04-17T23:10:08.623Z,18.30
2023-04-17T23:12:36.888Z,17.23
2023-04-17T23:15:05.222Z,16.80
2023-04-17T23:17:34.814Z,16.27
2023-04-17T23:20:04.024Z,17.10
2023-04-17T23:22:32.299Z,21.50
2023-04-17T23:25:00.635Z,17.90
2023-04-17T23:27:29.000Z,11.20
2023-04-17T23:29:57.243Z,19.13
2023-04-17T23:32:25.552Z,17.40
2023-04-17T23:34:55.146Z,18.57
2023-04-17T23:37:23.440Z,17.60
2023-04-17T23:39:51.734Z,17.57
2023-04-17T23:42:19.979Z,16.30
2023-04-17T23:44:48.186Z,15.60
2023-04-17T23:47:16.429Z,12.20
2023-04-17T23:49:44.656Z,12.47
2023-04-17T23:52:14.239Z,16.40
2023-04-17T23:54:42.501Z,22.37
2023-04-17T23:57:10.697Z,21.03
2023-04-17T23:59:38.910Z,20.60
